Andes — 5BFM3 — position and weather

sailwx.info

Track history (hours):
 
Tides and Currents Weather Stations Pressure Air Temp Water Temp Dewpoint Dewpoint Depression Visibility Wind Speed Wind Dir Waves Ship Positions

Andes

Last reported at 2015-Apr-26 19:20 UTC. Time now 2015-Apr-27 17:07 UTC.
Position N 39°13' W 009°51'.

Length 182 m; draft 8.1 m.

Type: Ship. MMSI: 209394000.

Date/timePositionNaut miles runAvg speedWind from/ knotsBaromVisibWave heightAir tempDewpointWater temp
2015-Apr-26 19:20N 39°13' W 009°51'911.1
2015-Apr-26 18:33N 39°05' W 009°51'1111.0
2015-Apr-26 17:33N 38°54' W 009°51'1111.0
2015-Apr-26 16:33N 38°43' W 009°51'1010.2
2015-Apr-26 15:33N 38°33' W 009°48'1010.1
2015-Apr-26 14:33N 38°23' W 009°46'1010.1
2015-Apr-26 13:33N 38°13' W 009°42'1010.2
2015-Apr-26 12:33N 38°03' W 009°40'1010.2
2015-Apr-26 11:33N 37°53' W 009°37'1010.2
2015-Apr-26 10:33N 37°43' W 009°34'1010.5
2015-Apr-26 09:33N 37°33' W 009°31'58 9.7
2015-Apr-26 03:31N 36°41' W 008°57'1311.0
2015-Apr-26 02:22N 36°37' W 008°42'911.1
2015-Apr-26 01:32N 36°34' W 008°31'1211.1
2015-Apr-26 00:28N 36°31' W 008°17'13410.8
2015-Apr-25 12:07N 35°58' W 005°36'5 9.1
2015-Apr-25 11:33N 35°59' W 005°30'9 9.3
2015-Apr-25 10:33N 36°06' W 005°23'1 0.1
2015-Apr-24 13:31N 36°08' W 005°23'0 0.0
2015-Apr-24 08:17N 36°08' W 005°23'0 0.4
2015-Apr-24 07:33N 36°08' W 005°22'4 4.5
2015-Apr-24 06:33N 36°05' W 005°18'3 0.2
2015-Apr-23 15:14N 36°06' W 005°13'913.2
2015-Apr-23 14:33N 36°00' W 005°22'  
Track history (hours):
 
Tides and Currents Weather Stations Pressure Air Temp Water Temp Dewpoint Dewpoint Depression Visibility Wind Speed Wind Dir Waves Ship Positions

Andes

Last reported at 2015-Apr-26 19:20 UTC. Time now 2015-Apr-27 17:08 UTC.
Position N 39°13' W 009°51'.

Length 182 m; draft 8.1 m.

Type: Ship. MMSI: 209394000.

Date/timePositionNaut miles runAvg speedWind from/ knotsBaromVisibWave heightAir tempDewpointWater temp
2015-Apr-26 19:20N 39°13' W 009°51'911.1
2015-Apr-26 18:33N 39°05' W 009°51'1111.0
2015-Apr-26 17:33N 38°54' W 009°51'1111.0
2015-Apr-26 16:33N 38°43' W 009°51'1010.2
2015-Apr-26 15:33N 38°33' W 009°48'1010.1
2015-Apr-26 14:33N 38°23' W 009°46'1010.1
2015-Apr-26 13:33N 38°13' W 009°42'1010.2
2015-Apr-26 12:33N 38°03' W 009°40'1010.2
2015-Apr-26 11:33N 37°53' W 009°37'1010.2
2015-Apr-26 10:33N 37°43' W 009°34'1010.5
2015-Apr-26 09:33N 37°33' W 009°31'58 9.7
2015-Apr-26 03:31N 36°41' W 008°57'1311.0
2015-Apr-26 02:22N 36°37' W 008°42'911.1
2015-Apr-26 01:32N 36°34' W 008°31'1211.1
2015-Apr-26 00:28N 36°31' W 008°17'13410.8
2015-Apr-25 12:07N 35°58' W 005°36'5 9.1
2015-Apr-25 11:33N 35°59' W 005°30'9 9.3
2015-Apr-25 10:33N 36°06' W 005°23'1 0.1
2015-Apr-24 13:31N 36°08' W 005°23'0 0.0
2015-Apr-24 08:17N 36°08' W 005°23'0 0.4
2015-Apr-24 07:33N 36°08' W 005°22'4 4.5
2015-Apr-24 06:33N 36°05' W 005°18'3 0.2
2015-Apr-23 15:14N 36°06' W 005°13'913.2
2015-Apr-23 14:33N 36°00' W 005°22'  

Dump ship's entire track history